createdAt,value
2022-12-01T00:00:02.254Z,7.11
2022-12-01T00:01:02.207Z,7.11
2022-12-01T00:02:00.810Z,7.11
2022-12-01T00:03:01.506Z,7.11
2022-12-01T00:04:04.152Z,7.11
2022-12-01T00:05:01.714Z,7.11
2022-12-01T00:06:00.652Z,7.11
2022-12-01T00:07:00.965Z,7.2
2022-12-01T00:08:00.618Z,7.13
2022-12-01T00:10:01.677Z,7.13
2022-12-01T00:11:01.434Z,7.13
2022-12-01T00:12:00.644Z,7.13
2022-12-01T00:13:03.373Z,7.13
2022-12-01T00:14:00.493Z,7.13
2022-12-01T00:15:00.796Z,7.13
2022-12-01T00:16:00.501Z,7.13
2022-12-01T00:17:02.103Z,6.85
2022-12-01T00:18:02.558Z,6.85
2022-12-01T00:19:00.399Z,6.85
2022-12-01T00:20:00.481Z,6.85
2022-12-01T00:21:00.580Z,6.85
2022-12-01T00:22:00.408Z,6.85
2022-12-01T00:23:00.528Z,6.85
2022-12-01T00:24:00.807Z,6.58
2022-12-01T00:25:00.363Z,6.58
2022-12-01T00:26:00.528Z,6.58
2022-12-01T00:27:00.398Z,6.58
2022-12-01T00:28:01.731Z,6.58
2022-12-01T00:29:00.504Z,6.58
2022-12-01T00:30:00.553Z,6.58
2022-12-01T00:31:00.503Z,6.58
2022-12-01T00:32:05.188Z,6.33
2022-12-01T00:33:00.445Z,6.33
2022-12-01T00:34:00.913Z,6.33
2022-12-01T00:35:00.391Z,6.33
2022-12-01T00:36:01.451Z,6.33
2022-12-01T00:37:00.466Z,6.33
2022-12-01T00:38:01.199Z,6.33
2022-12-01T00:39:01.586Z,6.33
2022-12-01T00:40:00.920Z,6.33
2022-12-01T00:41:00.484Z,6.33
2022-12-01T00:42:00.983Z,6.33
2022-12-01T00:43:00.432Z,6.33
2022-12-01T00:44:00.611Z,6.33
2022-12-01T00:45:00.338Z,6.33
2022-12-01T00:46:00.426Z,6.33
2022-12-01T00:47:00.391Z,6.33
2022-12-01T00:48:00.468Z,6.33
2022-12-01T00:49:01.568Z,6.07
2022-12-01T00:50:00.677Z,6.07
2022-12-01T00:51:01.845Z,6.07
2022-12-01T00:52:00.407Z,6.07
2022-12-01T00:53:00.346Z,6.07
2022-12-01T00:54:00.446Z,6.07
2022-12-01T00:55:01.557Z,6.07
2022-12-01T00:56:00.429Z,6.07
2022-12-01T00:57:00.575Z,6.07
2022-12-01T00:58:00.681Z,6.07
2022-12-01T00:59:01.863Z,6.07
2022-12-01T01:00:02.741Z,6.07
2022-12-01T01:01:01.592Z,6.07
2022-12-01T01:02:00.800Z,6.07
2022-12-01T01:03:01.556Z,6.07
2022-12-01T01:04:00.477Z,6.07
2022-12-01T01:05:01.480Z,6.07
2022-12-01T01:06:00.612Z,6.07
2022-12-01T01:07:00.890Z,6.07
2022-12-01T01:08:00.515Z,6.07
2022-12-01T01:09:00.361Z,6.07
2022-12-01T01:10:02.108Z,6.07
2022-12-01T01:11:00.847Z,6.07
2022-12-01T01:12:00.426Z,6.07
2022-12-01T01:13:00.391Z,6.07
2022-12-01T01:14:01.656Z,6.07
2022-12-01T01:15:00.417Z,6.07
2022-12-01T01:16:01.839Z,6.07
2022-12-01T01:17:00.643Z,6.07
2022-12-01T01:18:00.341Z,6.07
2022-12-01T01:19:00.511Z,6.07
2022-12-01T01:20:02.217Z,6.07
2022-12-01T01:21:00.736Z,6.07
2022-12-01T01:22:02.637Z,6.07
2022-12-01T01:23:00.414Z,5.76
2022-12-01T01:24:01.569Z,5.76
2022-12-01T01:25:00.326Z,5.76
2022-12-01T01:26:00.344Z,5.76
2022-12-01T01:27:00.397Z,5.76
2022-12-01T01:28:00.862Z,5.76
2022-12-01T01:29:00.445Z,5.76
2022-12-01T01:30:01.482Z,5.76
2022-12-01T01:31:00.451Z,5.76
2022-12-01T01:32:01.554Z,5.76
2022-12-01T01:33:00.625Z,5.76
2022-12-01T01:34:01.793Z,5.55
2022-12-01T01:35:00.338Z,5.55
2022-12-01T01:36:00.436Z,5.55
2022-12-01T01:37:00.468Z,5.55
2022-12-01T01:38:00.732Z,5.55
2022-12-01T01:39:00.645Z,5.55
2022-12-01T01:40:00.406Z,5.55
2022-12-01T01:41:00.587Z,5.55
2022-12-01T01:42:00.567Z,5.55
2022-12-01T01:43:02.153Z,5.55
2022-12-01T01:45:00.403Z,5.55
2022-12-01T01:46:02.139Z,5.55
2022-12-01T01:47:00.678Z,5.55
2022-12-01T01:48:00.871Z,5.55
2022-12-01T01:49:00.927Z,5.55
2022-12-01T01:50:02.813Z,5.55
2022-12-01T01:51:01.535Z,5.55
2022-12-01T01:52:00.569Z,5.55
2022-12-01T01:53:00.894Z,5.55
2022-12-01T01:54:01.894Z,5.55
2022-12-01T01:55:01.069Z,5.55
2022-12-01T01:56:01.880Z,5.55
2022-12-01T01:57:00.888Z,5.55
2022-12-01T01:58:01.530Z,5.55
2022-12-01T01:59:01.632Z,5.55
2022-12-01T02:00:02.178Z,5.55
2022-12-01T02:02:00.630Z,5.55
2022-12-01T02:03:00.632Z,5.57
2022-12-01T02:04:02.580Z,5.57
2022-12-01T02:05:01.043Z,5.57
2022-12-01T02:06:04.839Z,5.57
2022-12-01T02:08:02.202Z,5.41
2022-12-01T02:09:02.090Z,5.41
2022-12-01T02:10:02.109Z,5.41
2022-12-01T02:11:01.616Z,5.41
2022-12-01T02:12:00.981Z,5.41
2022-12-01T02:13:00.543Z,5.41
2022-12-01T02:14:00.545Z,5.41
2022-12-01T02:15:00.558Z,5.41
2022-12-01T02:16:01.587Z,5.41
2022-12-01T02:17:00.814Z,5.41
2022-12-01T02:18:00.982Z,5.37
2022-12-01T02:19:00.364Z,5.37
2022-12-01T02:20:01.625Z,5.37
2022-12-01T02:21:00.335Z,5.37
2022-12-01T02:22:01.786Z,5.37
2022-12-01T02:23:00.506Z,5.37
2022-12-01T02:24:00.848Z,5.37
2022-12-01T02:25:00.427Z,5.37
2022-12-01T02:26:00.497Z,5.37
2022-12-01T02:27:00.544Z,5.37
2022-12-01T02:28:00.455Z,5.37
2022-12-01T02:29:00.344Z,5.37
2022-12-01T02:30:00.515Z,5.37
2022-12-01T02:31:00.454Z,5.37
2022-12-01T02:32:00.582Z,5.37
2022-12-01T02:33:00.432Z,5.37
2022-12-01T02:34:00.487Z,5.37
2022-12-01T02:35:00.362Z,5.37
2022-12-01T02:36:00.527Z,5.37
2022-12-01T02:37:00.310Z,5.37
2022-12-01T02:38:00.780Z,5.37
2022-12-01T02:39:01.551Z,5.37
2022-12-01T02:40:00.438Z,5.37
2022-12-01T02:41:00.397Z,5.37
2022-12-01T02:42:00.397Z,5.37
2022-12-01T02:43:00.711Z,5.37
2022-12-01T02:44:01.135Z,5.37
2022-12-01T02:45:00.870Z,5.37
2022-12-01T02:46:00.557Z,5.37
2022-12-01T02:47:00.800Z,5.37
2022-12-01T02:48:00.556Z,5.37
2022-12-01T02:49:04.536Z,5.37
2022-12-01T02:50:01.806Z,5.37
2022-12-01T02:51:00.424Z,5.37
2022-12-01T02:52:00.432Z,5.37
2022-12-01T02:53:00.574Z,5.37
2022-12-01T02:54:00.792Z,5.37
2022-12-01T02:55:00.622Z,5.37
2022-12-01T02:56:00.709Z,5.37
2022-12-01T02:57:01.783Z,5.37
2022-12-01T02:58:00.602Z,5.37
2022-12-01T02:59:00.486Z,5.35
2022-12-01T03:01:01.349Z,5.35
2022-12-01T03:02:00.359Z,5.35
2022-12-01T03:03:00.602Z,5.35
2022-12-01T03:04:01.910Z,5.35
2022-12-01T03:05:00.339Z,5.35
2022-12-01T03:06:01.349Z,5.35
2022-12-01T03:07:00.367Z,5.35
2022-12-01T03:08:00.586Z,5.35
2022-12-01T03:09:00.547Z,5.35
2022-12-01T03:10:02.632Z,5.35
2022-12-01T03:11:01.810Z,5.35
2022-12-01T03:12:02.266Z,5.35
2022-12-01T03:13:00.591Z,5.35
2022-12-01T03:14:01.996Z,5.35
2022-12-01T03:15:00.417Z,5.35
2022-12-01T03:16:02.210Z,5.35
2022-12-01T03:17:00.522Z,5.35
2022-12-01T03:18:00.558Z,5.21
2022-12-01T03:19:00.797Z,5.21
2022-12-01T03:20:06.387Z,5.21
2022-12-01T03:21:00.599Z,5.21
2022-12-01T03:22:01.108Z,5.21
2022-12-01T03:23:00.978Z,5.21
2022-12-01T03:24:01.357Z,5.21
2022-12-01T03:25:01.790Z,5.21
2022-12-01T03:26:00.539Z,5.21
2022-12-01T03:27:00.388Z,5.21
2022-12-01T03:28:20.654Z,5.86
2022-12-01T03:29:00.378Z,5.86
2022-12-01T03:30:00.506Z,5.76
2022-12-01T03:31:00.639Z,5.76
2022-12-01T03:32:00.400Z,5.76
2022-12-01T03:34:00.549Z,5.76
2022-12-01T03:35:00.546Z,5.76
2022-12-01T03:36:00.455Z,5.76
2022-12-01T03:37:00.719Z,5.76
2022-12-01T03:38:00.441Z,5.76
2022-12-01T03:40:01.159Z,5.76
2022-12-01T03:41:00.443Z,5.76
2022-12-01T03:42:00.609Z,5.76
2022-12-01T03:43:01.542Z,5.76
2022-12-01T03:44:01.788Z,5.76
2022-12-01T03:45:01.706Z,5.76
2022-12-01T03:46:00.688Z,5.76
2022-12-01T03:47:01.817Z,5.76
2022-12-01T03:48:00.646Z,5.2
2022-12-01T03:49:00.937Z,5.2
2022-12-01T03:50:00.487Z,5.2
2022-12-01T03:51:05.183Z,5.2
2022-12-01T03:52:00.368Z,5.2
2022-12-01T03:53:00.373Z,5.2
2022-12-01T03:54:00.603Z,5.2
2022-12-01T03:55:00.584Z,5.2
2022-12-01T03:56:00.383Z,5.2
2022-12-01T03:57:00.325Z,5.2
2022-12-01T03:58:00.371Z,5.2
2022-12-01T03:59:00.367Z,5.2
2022-12-01T04:00:00.567Z,5.2
2022-12-01T04:01:00.402Z,5.2
2022-12-01T04:02:01.587Z,5.2
2022-12-01T04:03:00.376Z,5.2
2022-12-01T04:04:01.518Z,5.2
2022-12-01T04:05:00.375Z,5.2
2022-12-01T04:06:02.044Z,5.2
2022-12-01T04:07:00.440Z,5.2
2022-12-01T04:08:00.764Z,5.2
2022-12-01T04:09:00.434Z,5.2
2022-12-01T04:10:01.602Z,5.2
2022-12-01T04:11:00.430Z,5.2
2022-12-01T04:12:00.510Z,4.89
2022-12-01T04:13:00.461Z,4.89
2022-12-01T04:14:02.337Z,4.89
2022-12-01T04:15:00.333Z,4.89
2022-12-01T04:16:00.459Z,4.89
2022-12-01T04:17:01.577Z,4.89
2022-12-01T04:18:00.502Z,4.89
2022-12-01T04:19:00.465Z,4.89
2022-12-01T04:20:00.514Z,4.89
2022-12-01T04:21:01.897Z,4.89
2022-12-01T04:22:00.456Z,4.89
2022-12-01T04:23:00.476Z,4.89
2022-12-01T04:24:01.389Z,4.89
2022-12-01T04:25:00.527Z,4.89
2022-12-01T04:26:01.314Z,4.89
2022-12-01T04:27:00.360Z,4.89
2022-12-01T04:28:00.898Z,4.89
2022-12-01T04:29:00.483Z,4.89
2022-12-01T04:30:00.784Z,4.89
2022-12-01T04:31:01.602Z,4.89
2022-12-01T04:35:00.438Z,4.89
2022-12-01T04:36:00.523Z,4.89
2022-12-01T04:37:01.875Z,4.89
2022-12-01T04:38:00.462Z,4.89
2022-12-01T04:39:00.702Z,4.89
2022-12-01T04:40:00.473Z,4.89
2022-12-01T04:41:00.831Z,4.89
2022-12-01T04:42:00.425Z,4.89
2022-12-01T04:43:00.439Z,4.89
2022-12-01T04:44:00.595Z,4.89
2022-12-01T04:45:00.761Z,4.89
2022-12-01T04:46:01.618Z,4.89
2022-12-01T04:47:00.452Z,4.89
2022-12-01T04:48:00.447Z,4.89
2022-12-01T04:49:00.536Z,4.89
2022-12-01T04:50:01.191Z,5
2022-12-01T04:51:00.425Z,5
2022-12-01T04:52:01.452Z,5
2022-12-01T04:53:00.584Z,5
2022-12-01T04:54:00.936Z,5
2022-12-01T04:55:00.496Z,5
2022-12-01T04:56:00.418Z,5
2022-12-01T04:59:00.530Z,5
2022-12-01T05:00:00.664Z,5
2022-12-01T05:01:08.152Z,5
2022-12-01T05:02:00.811Z,5
2022-12-01T05:03:00.360Z,5
2022-12-01T05:04:00.397Z,5
2022-12-01T05:05:00.341Z,5
2022-12-01T05:06:00.472Z,5
2022-12-01T05:07:00.397Z,5
2022-12-01T05:08:00.492Z,5
2022-12-01T05:09:00.543Z,5
2022-12-01T05:10:00.381Z,5
2022-12-01T05:11:00.351Z,5
2022-12-01T05:12:00.629Z,4.63
2022-12-01T05:13:00.376Z,4.63
2022-12-01T05:14:00.390Z,4.63
2022-12-01T05:15:01.609Z,4.63
2022-12-01T05:16:00.479Z,4.63
2022-12-01T05:17:00.352Z,4.63
2022-12-01T05:18:00.657Z,4.63
2022-12-01T05:19:00.348Z,4.63
2022-12-01T05:20:00.533Z,4.49
2022-12-01T05:21:01.529Z,4.49
2022-12-01T05:22:00.413Z,4.49
2022-12-01T05:23:05.952Z,4.49
2022-12-01T05:24:00.806Z,4.49
2022-12-01T05:25:00.484Z,4.49
2022-12-01T05:26:00.835Z,4.49
2022-12-01T05:27:01.470Z,4.49
2022-12-01T05:28:00.385Z,4.49
2022-12-01T05:29:00.770Z,4.49
2022-12-01T05:30:00.452Z,4.49
2022-12-01T05:31:00.376Z,4.49
2022-12-01T05:32:00.602Z,4.49
2022-12-01T05:33:00.466Z,4.49
2022-12-01T05:34:01.579Z,4.49
2022-12-01T05:35:00.389Z,4.49
2022-12-01T05:36:01.552Z,4.49
2022-12-01T05:37:00.489Z,4.49
2022-12-01T05:38:07.372Z,4.49
2022-12-01T05:39:00.935Z,4.49
2022-12-01T05:40:01.601Z,4.49
2022-12-01T05:41:00.366Z,4.49
2022-12-01T05:42:01.580Z,4.49
2022-12-01T05:43:00.408Z,4.49
2022-12-01T05:44:00.791Z,4.49
2022-12-01T05:45:00.549Z,4.49
2022-12-01T05:46:02.063Z,4.49
2022-12-01T05:47:00.404Z,4.49
2022-12-01T05:48:00.727Z,5.01
2022-12-01T05:49:00.402Z,5.01
2022-12-01T05:50:05.222Z,5.01
2022-12-01T05:51:00.469Z,5.01
2022-12-01T05:52:01.579Z,5.01
2022-12-01T05:53:00.425Z,5.01
2022-12-01T05:54:01.514Z,5.01
2022-12-01T05:55:00.528Z,5.01
2022-12-01T05:56:01.376Z,5.01
2022-12-01T05:57:00.338Z,5.01
2022-12-01T05:58:02.416Z,5.01
2022-12-01T05:59:00.375Z,5.01
2022-12-01T06:00:01.045Z,5.01
2022-12-01T06:01:00.408Z,5.01
2022-12-01T06:02:00.503Z,5.01
2022-12-01T06:03:00.333Z,5.01
2022-12-01T06:04:00.628Z,5.01
2022-12-01T06:05:00.358Z,5.01
2022-12-01T06:06:00.415Z,4.93
2022-12-01T06:07:01.581Z,4.93
2022-12-01T06:08:00.518Z,4.93
2022-12-01T06:09:01.569Z,4.93
2022-12-01T06:10:00.488Z,4.93
2022-12-01T06:11:00.507Z,4.93
2022-12-01T06:12:00.434Z,4.93
2022-12-01T06:13:00.418Z,4.93
2022-12-01T06:14:00.412Z,4.93
2022-12-01T06:15:01.451Z,4.93
2022-12-01T06:16:00.642Z,4.93
2022-12-01T06:17:01.651Z,4.93
2022-12-01T06:18:01.883Z,4.93
2022-12-01T06:19:00.399Z,4.93
2022-12-01T06:20:00.462Z,4.93
2022-12-01T06:21:00.372Z,4.93
2022-12-01T06:22:00.524Z,4.93
2022-12-01T06:23:01.540Z,4.93
2022-12-01T06:24:00.474Z,4.93
2022-12-01T06:25:00.539Z,4.93
2022-12-01T06:26:00.486Z,4.93
2022-12-01T06:27:00.655Z,4.93
2022-12-01T06:28:00.369Z,4.93
2022-12-01T06:29:00.474Z,4.93
2022-12-01T06:30:00.434Z,4.93
2022-12-01T06:31:03.408Z,4.93
2022-12-01T06:32:00.518Z,4.93
2022-12-01T06:33:00.434Z,4.93
2022-12-01T06:34:01.524Z,4.93
2022-12-01T06:35:00.396Z,4.93
2022-12-01T06:36:00.695Z,4.93
2022-12-01T06:37:00.318Z,4.93
2022-12-01T06:38:01.146Z,4.93
2022-12-01T06:39:00.704Z,4.93
2022-12-01T06:40:01.126Z,4.93
2022-12-01T06:41:00.489Z,4.93
2022-12-01T06:42:00.718Z,4.93
2022-12-01T06:43:00.361Z,5.1
2022-12-01T06:44:00.940Z,5.1
2022-12-01T06:45:00.361Z,5.1
2022-12-01T06:46:02.377Z,5.1
2022-12-01T06:47:00.317Z,5.1
2022-12-01T06:48:00.467Z,5.1
2022-12-01T06:50:00.585Z,5.1
2022-12-01T06:51:00.467Z,5.1
2022-12-01T06:52:01.179Z,5.1
2022-12-01T06:53:01.937Z,5.1
2022-12-01T06:54:05.258Z,5.1
2022-12-01T06:55:02.050Z,5.1
2022-12-01T06:56:00.383Z,5.1
2022-12-01T06:57:00.604Z,5.1
2022-12-01T06:58:00.468Z,5.1
2022-12-01T06:59:00.338Z,5.1
2022-12-01T07:00:00.866Z,5.1
2022-12-01T07:01:00.561Z,5.1
2022-12-01T07:02:00.592Z,5.1
2022-12-01T07:03:00.425Z,5.1
2022-12-01T07:04:00.430Z,5.1
2022-12-01T07:05:01.025Z,4.89
2022-12-01T07:06:00.409Z,4.89
2022-12-01T07:07:00.992Z,4.89
2022-12-01T07:08:00.439Z,4.89
2022-12-01T07:09:01.528Z,4.89
2022-12-01T07:10:00.446Z,4.89
2022-12-01T07:11:00.826Z,4.89
2022-12-01T07:12:00.371Z,4.89
2022-12-01T07:13:01.661Z,4.89
2022-12-01T07:14:00.526Z,4.89
2022-12-01T07:15:08.592Z,4.89
2022-12-01T07:16:00.507Z,4.89
2022-12-01T07:17:00.789Z,4.89
2022-12-01T07:18:00.440Z,4.89
2022-12-01T07:19:00.361Z,4.89
2022-12-01T07:20:00.452Z,4.89
2022-12-01T07:21:00.647Z,4.89
2022-12-01T07:22:00.623Z,4.89
2022-12-01T07:23:00.385Z,4.89
2022-12-01T07:24:01.579Z,4.89
2022-12-01T07:25:00.475Z,4.89
2022-12-01T07:26:00.841Z,4.89
2022-12-01T07:27:00.331Z,4.89
2022-12-01T07:28:01.507Z,4.89
2022-12-01T07:29:00.517Z,4.89
2022-12-01T07:30:00.759Z,4.89
2022-12-01T07:31:00.383Z,4.89
2022-12-01T07:32:01.435Z,4.89
2022-12-01T07:33:00.696Z,4.89
2022-12-01T07:34:01.522Z,4.89
2022-12-01T07:35:00.802Z,4.89
2022-12-01T07:36:01.431Z,4.89
2022-12-01T07:37:00.352Z,4.89
2022-12-01T07:38:00.876Z,4.89
2022-12-01T07:39:00.365Z,4.89
2022-12-01T07:40:01.526Z,4.89
2022-12-01T07:41:00.437Z,4.89
2022-12-01T07:42:00.405Z,4.89
2022-12-01T07:43:00.458Z,4.89
2022-12-01T07:44:00.627Z,4.89
2022-12-01T07:45:00.365Z,4.89
2022-12-01T07:46:00.872Z,4.89
2022-12-01T07:47:00.424Z,4.89
2022-12-01T07:48:00.476Z,4.89
2022-12-01T07:49:00.450Z,4.89
2022-12-01T07:50:00.620Z,4.89
2022-12-01T07:51:00.359Z,4.89
2022-12-01T07:52:00.504Z,4.89
2022-12-01T07:53:00.298Z,4.89
2022-12-01T07:54:00.445Z,4.89
2022-12-01T07:55:01.527Z,4.89
2022-12-01T07:56:04.351Z,4.89
2022-12-01T07:57:00.447Z,4.89
2022-12-01T07:58:00.509Z,4.89
2022-12-01T07:59:01.469Z,4.89
2022-12-01T08:00:00.490Z,4.89
2022-12-01T08:01:00.374Z,4.93
2022-12-01T08:02:00.610Z,4.93
2022-12-01T08:03:01.584Z,4.93
2022-12-01T08:04:00.656Z,4.93
2022-12-01T08:05:01.389Z,4.93
2022-12-01T08:06:00.461Z,4.93
2022-12-01T08:07:00.446Z,4.93
2022-12-01T08:08:00.648Z,4.93
2022-12-01T08:09:00.464Z,4.93
2022-12-01T08:10:00.649Z,4.93
2022-12-01T08:11:00.315Z,4.93
2022-12-01T08:12:00.461Z,4.93
2022-12-01T08:13:00.370Z,4.93
2022-12-01T08:14:00.385Z,4.93
2022-12-01T08:15:00.441Z,4.93
2022-12-01T08:16:00.550Z,4.93
2022-12-01T08:17:00.449Z,4.93
2022-12-01T08:18:00.378Z,4.93
2022-12-01T08:19:00.652Z,4.93
2022-12-01T08:20:00.435Z,4.93
2022-12-01T08:21:02.424Z,4.93
2022-12-01T08:22:01.438Z,4.93
2022-12-01T08:23:00.334Z,4.93
2022-12-01T08:24:00.801Z,5.01
2022-12-01T08:25:00.380Z,5.01
2022-12-01T08:26:03.783Z,5.01
2022-12-01T08:27:00.333Z,5.01
2022-12-01T08:28:01.518Z,5.01
2022-12-01T08:29:00.419Z,5.01
2022-12-01T08:30:00.988Z,5.01
2022-12-01T08:31:00.420Z,5.01
2022-12-01T08:32:03.247Z,5.01
2022-12-01T08:33:00.324Z,5.01
2022-12-01T08:34:00.460Z,5.01
2022-12-01T08:35:00.439Z,5.01
2022-12-01T08:36:00.413Z,5.01
2022-12-01T08:37:00.436Z,5.01
2022-12-01T08:38:00.706Z,5.01
2022-12-01T08:39:01.555Z,5.01
2022-12-01T08:40:00.449Z,5.01
2022-12-01T08:41:02.958Z,5.01
2022-12-01T08:42:03.659Z,5.01
2022-12-01T08:43:01.733Z,5.01
2022-12-01T08:44:01.260Z,5.01
2022-12-01T08:45:00.403Z,5.01
2022-12-01T08:46:00.632Z,5.01
2022-12-01T08:47:00.396Z,5.01
2022-12-01T08:48:00.576Z,5.01
2022-12-01T08:49:00.938Z,5.01
2022-12-01T08:50:00.526Z,5.01
2022-12-01T08:51:01.502Z,5.01
2022-12-01T08:52:00.501Z,5.01
2022-12-01T08:53:00.434Z,5.01
2022-12-01T08:54:00.519Z,5.01
2022-12-01T08:55:01.523Z,5.01
2022-12-01T08:56:00.436Z,5.01
2022-12-01T08:57:01.480Z,5.01
2022-12-01T08:58:02.214Z,5.01
2022-12-01T08:59:00.741Z,5.01
2022-12-01T09:00:01.273Z,5.01
2022-12-01T09:01:00.359Z,5.21
2022-12-01T09:02:06.633Z,5.21
2022-12-01T09:03:04.452Z,5.21
2022-12-01T09:04:00.532Z,5.21
2022-12-01T09:05:00.369Z,5.21
2022-12-01T09:06:00.568Z,5.21
2022-12-01T09:07:00.338Z,5.21
2022-12-01T09:08:00.488Z,5.21
2022-12-01T09:09:00.709Z,5.21
2022-12-01T09:10:00.802Z,5.21
2022-12-01T09:11:00.776Z,5.21
2022-12-01T09:12:00.546Z,5.21
2022-12-01T09:13:00.761Z,5.21
2022-12-01T09:14:01.642Z,5.21
2022-12-01T09:15:00.483Z,5.52
2022-12-01T09:16:01.273Z,5.52
2022-12-01T09:17:00.488Z,5.52
2022-12-01T09:18:00.363Z,5.52
2022-12-01T09:19:00.438Z,5.52
2022-12-01T09:20:01.128Z,5.52
2022-12-01T09:21:00.410Z,5.52
2022-12-01T09:22:01.591Z,5.52
2022-12-01T09:23:00.383Z,5.52
2022-12-01T09:24:01.371Z,5.52
2022-12-01T09:25:00.381Z,5.52
2022-12-01T09:26:01.711Z,5.52
2022-12-01T09:27:00.497Z,5.52
2022-12-01T09:28:00.822Z,5.52
2022-12-01T09:29:00.472Z,5.52
2022-12-01T09:30:00.406Z,5.52
2022-12-01T09:31:00.571Z,5.52
2022-12-01T09:32:03.170Z,5.52
2022-12-01T09:33:00.305Z,5.52
2022-12-01T09:34:00.545Z,5.52
2022-12-01T09:35:00.590Z,5.52
2022-12-01T09:36:00.383Z,5.52
2022-12-01T09:37:00.974Z,5.52
2022-12-01T09:38:00.463Z,5.52
2022-12-01T09:39:00.348Z,5.52
2022-12-01T09:40:00.632Z,5.52
2022-12-01T09:41:01.076Z,5.52
2022-12-01T09:42:01.502Z,5.52
2022-12-01T09:43:01.002Z,5.52
2022-12-01T09:44:00.448Z,5.52
2022-12-01T09:45:01.351Z,5.52
2022-12-01T09:46:00.490Z,5.52
2022-12-01T09:47:00.767Z,5.52
2022-12-01T09:48:00.427Z,5.52
2022-12-01T09:50:00.391Z,5.52
2022-12-01T09:51:12.220Z,5.76
2022-12-01T09:52:00.446Z,5.76
2022-12-01T09:53:00.393Z,5.76
2022-12-01T09:54:00.410Z,5.88
2022-12-01T09:55:00.403Z,5.88
2022-12-01T09:56:07.313Z,5.88
2022-12-01T09:57:00.599Z,5.88
2022-12-01T09:58:00.395Z,5.88
2022-12-01T09:59:00.455Z,5.88
2022-12-01T10:00:00.498Z,5.88
2022-12-01T10:01:00.475Z,5.88
2022-12-01T10:02:01.258Z,5.88
2022-12-01T10:03:00.353Z,5.88
2022-12-01T10:04:00.542Z,5.88
2022-12-01T10:05:00.557Z,5.88
2022-12-01T10:06:28.800Z,5.88
2022-12-01T10:07:00.397Z,5.88
2022-12-01T10:08:01.320Z,5.88
2022-12-01T10:09:00.504Z,5.88
2022-12-01T10:10:00.467Z,5.88
2022-12-01T10:11:00.404Z,5.88
2022-12-01T10:12:02.048Z,5.88
2022-12-01T10:13:00.416Z,5.88
2022-12-01T10:14:00.649Z,5.88
2022-12-01T10:15:00.331Z,5.88
2022-12-01T10:16:00.627Z,5.88
2022-12-01T10:18:00.464Z,5.88
2022-12-01T10:19:00.686Z,6.23
2022-12-01T10:20:00.879Z,6.23
2022-12-01T10:21:00.539Z,6.23
2022-12-01T10:22:00.681Z,6.23
2022-12-01T10:23:00.514Z,6.23
2022-12-01T10:24:00.575Z,6.23
2022-12-01T10:25:00.478Z,6.23
2022-12-01T10:26:00.451Z,6.23
2022-12-01T10:27:01.541Z,6.23
2022-12-01T10:28:00.406Z,6.23
2022-12-01T10:29:00.384Z,6.23
2022-12-01T10:30:00.480Z,6.23
2022-12-01T10:31:00.426Z,6.23
2022-12-01T10:32:00.560Z,6.23
2022-12-01T10:33:00.699Z,6.23
2022-12-01T10:34:03.867Z,6.23
2022-12-01T10:35:01.410Z,6.23
2022-12-01T10:36:00.420Z,6.23
2022-12-01T10:37:00.398Z,6.23
2022-12-01T10:38:00.618Z,6.23
2022-12-01T10:39:01.337Z,6.23
2022-12-01T10:40:00.587Z,6.23
2022-12-01T10:41:00.436Z,6.23
2022-12-01T10:42:00.442Z,6.23
2022-12-01T10:43:00.468Z,6.23
2022-12-01T10:44:00.387Z,6.23
2022-12-01T10:45:00.570Z,6.23
2022-12-01T10:46:00.488Z,6.23
2022-12-01T10:47:00.334Z,6.74
2022-12-01T10:48:00.465Z,6.74
2022-12-01T10:49:00.414Z,6.74
2022-12-01T10:50:00.393Z,6.74
2022-12-01T10:51:00.383Z,6.74
2022-12-01T10:52:01.099Z,6.74
2022-12-01T10:53:00.376Z,6.74
2022-12-01T10:54:00.396Z,6.74
2022-12-01T10:55:00.343Z,6.74
2022-12-01T10:56:01.234Z,6.74
2022-12-01T10:57:00.468Z,6.74
2022-12-01T10:58:06.179Z,6.74
2022-12-01T10:59:00.341Z,6.74
2022-12-01T11:00:02.068Z,6.74
2022-12-01T11:01:00.853Z,6.74
2022-12-01T11:02:01.320Z,6.74
2022-12-01T11:03:00.645Z,6.74
2022-12-01T11:04:01.936Z,6.74
2022-12-01T11:05:00.360Z,6.74
2022-12-01T11:06:07.568Z,6.74
2022-12-01T11:07:00.486Z,6.74
2022-12-01T11:08:00.653Z,6.74
2022-12-01T11:09:00.447Z,6.74
2022-12-01T11:10:00.803Z,7.21
2022-12-01T11:11:00.546Z,7.21
2022-12-01T11:12:00.568Z,7.21
2022-12-01T11:13:00.323Z,7.21
2022-12-01T11:14:00.566Z,7.21
2022-12-01T11:15:00.484Z,7.21
2022-12-01T11:16:00.678Z,7.21
2022-12-01T11:17:00.763Z,7.21
2022-12-01T11:18:00.482Z,7.21
2022-12-01T11:19:00.606Z,7.21
2022-12-01T11:20:00.740Z,7.21
2022-12-01T11:21:00.791Z,7.21
2022-12-01T11:22:00.741Z,7.21
2022-12-01T11:23:01.514Z,7.21
2022-12-01T11:24:00.486Z,7.21
2022-12-01T11:25:01.889Z,7.21
2022-12-01T11:26:00.386Z,7.21
2022-12-01T11:27:00.642Z,7.21
2022-12-01T11:28:00.727Z,7.21
2022-12-01T11:29:00.640Z,7.21
2022-12-01T11:30:00.659Z,7.21
2022-12-01T11:31:00.716Z,7.21
2022-12-01T11:32:00.557Z,7.72
2022-12-01T11:33:01.486Z,7.72
2022-12-01T11:34:00.390Z,7.72
2022-12-01T11:35:01.442Z,7.72
2022-12-01T11:36:00.562Z,7.72
2022-12-01T11:37:00.429Z,7.72
2022-12-01T11:38:28.358Z,7.72
2022-12-01T11:39:00.459Z,7.72
2022-12-01T11:40:00.396Z,7.72
2022-12-01T11:41:00.526Z,7.72
2022-12-01T11:42:01.690Z,7.72
2022-12-01T11:44:01.914Z,8
2022-12-01T11:45:00.439Z,8
2022-12-01T11:46:00.615Z,8
2022-12-01T11:47:21.522Z,7.83
2022-12-01T11:48:00.586Z,7.83
2022-12-01T11:49:00.400Z,7.83
2022-12-01T11:50:01.883Z,7.83
2022-12-01T11:51:00.431Z,7.83
2022-12-01T11:52:00.709Z,7.83
2022-12-01T11:53:00.380Z,7.83
2022-12-01T11:54:01.676Z,7.83
2022-12-01T11:55:02.342Z,7.83
2022-12-01T11:56:00.415Z,7.5
2022-12-01T11:57:31.703Z,7.5
2022-12-01T11:58:01.498Z,7.5
2022-12-01T11:59:00.488Z,7.5
2022-12-01T12:00:00.554Z,7.5
2022-12-01T12:02:00.854Z,7.5
2022-12-01T12:03:00.657Z,7.5
2022-12-01T12:04:00.529Z,7.5
2022-12-01T12:05:00.348Z,7.5
2022-12-01T12:07:00.384Z,7.5
2022-12-01T12:08:00.585Z,7.5
2022-12-01T12:09:00.552Z,7.5
2022-12-01T12:10:00.488Z,7.5
2022-12-01T12:11:00.418Z,7.5
2022-12-01T12:12:00.480Z,7.5
2022-12-01T12:13:00.380Z,7.5
2022-12-01T12:14:00.636Z,7.5
2022-12-01T12:15:00.405Z,7.5
2022-12-01T12:16:00.442Z,7.5
2022-12-01T12:17:00.589Z,7.5
2022-12-01T12:18:00.538Z,7.5
2022-12-01T12:19:01.528Z,7.5
2022-12-01T12:20:07.696Z,7.5
2022-12-01T12:21:00.850Z,7.5
2022-12-01T12:22:00.583Z,7.5
2022-12-01T12:23:01.420Z,7.5
2022-12-01T12:24:00.474Z,7.5
2022-12-01T12:25:00.485Z,7.5
2022-12-01T12:26:00.530Z,7.6
2022-12-01T12:27:00.468Z,7.6
2022-12-01T12:28:00.570Z,7.6
2022-12-01T12:29:00.547Z,7.6
2022-12-01T12:30:00.593Z,7.6
2022-12-01T12:31:00.562Z,7.6
2022-12-01T12:32:02.919Z,7.6
2022-12-01T12:33:00.347Z,7.6
2022-12-01T12:34:00.465Z,7.6
2022-12-01T12:35:00.665Z,7.6
2022-12-01T12:36:00.397Z,7.6
2022-12-01T12:37:00.290Z,7.6
2022-12-01T12:38:00.458Z,7.6
2022-12-01T12:39:00.354Z,7.6
2022-12-01T12:40:00.368Z,7.6
2022-12-01T12:41:00.672Z,7.6
2022-12-01T12:42:00.435Z,7.6
2022-12-01T12:43:00.573Z,7.21
2022-12-01T12:44:00.362Z,7.24
2022-12-01T12:45:00.663Z,7.24
2022-12-01T12:46:00.520Z,7.24
2022-12-01T12:47:00.319Z,7.24
2022-12-01T12:48:00.619Z,7.24
2022-12-01T12:49:19.146Z,7.24
2022-12-01T12:50:00.443Z,7.24
2022-12-01T12:51:00.470Z,7.24
2022-12-01T12:52:06.555Z,7.24
2022-12-01T12:53:00.476Z,7.24
2022-12-01T12:54:00.568Z,7.24
2022-12-01T12:55:00.488Z,7.24
2022-12-01T12:56:00.581Z,7.24
2022-12-01T12:57:00.548Z,7.24
2022-12-01T12:58:00.663Z,7.24
2022-12-01T12:59:00.427Z,7.24
2022-12-01T13:00:00.748Z,7.24
2022-12-01T13:01:00.490Z,7.24
2022-12-01T13:02:00.562Z,7.24
2022-12-01T13:03:00.781Z,7.24
2022-12-01T13:04:00.448Z,7.24
2022-12-01T13:05:00.485Z,7.24
2022-12-01T13:07:00.360Z,7.24
2022-12-01T13:08:00.753Z,7.24
2022-12-01T13:09:00.433Z,7.24
2022-12-01T13:10:00.959Z,7.24
2022-12-01T13:11:00.339Z,7.24
2022-12-01T13:12:00.828Z,7.24
2022-12-01T13:13:01.457Z,7.24
2022-12-01T13:14:00.447Z,7.24
2022-12-01T13:15:01.448Z,7.24
2022-12-01T13:16:00.846Z,7.24
2022-12-01T13:17:00.382Z,7.24
2022-12-01T13:18:00.593Z,7.24
2022-12-01T13:19:00.683Z,7.24
2022-12-01T13:20:00.517Z,7.24
2022-12-01T13:21:00.655Z,7.24
2022-12-01T13:22:00.699Z,7.24
2022-12-01T13:23:00.601Z,7.24
2022-12-01T13:24:00.616Z,7.24
2022-12-01T13:25:00.438Z,7.24
2022-12-01T13:26:00.413Z,7.24
2022-12-01T13:27:00.425Z,7.24
2022-12-01T13:28:00.404Z,7.24
2022-12-01T13:29:01.104Z,7.24
2022-12-01T13:30:02.189Z,7.24
2022-12-01T13:31:00.418Z,7.24
2022-12-01T13:32:03.134Z,7.24
2022-12-01T13:33:00.339Z,7.24
2022-12-01T13:34:00.401Z,7.24
2022-12-01T13:35:00.570Z,7.24
2022-12-01T13:36:38.102Z,7.24
2022-12-01T13:37:00.390Z,6.83
2022-12-01T13:38:01.550Z,6.83
2022-12-01T13:39:00.377Z,6.83
2022-12-01T13:40:00.419Z,6.83
2022-12-01T13:41:00.615Z,6.83
2022-12-01T13:42:00.439Z,6.83